Time;durP1;ratioP1;P1;durP2;ratioP2;P2;SDS_P1;SDS_P2;PMS_P1;PMS_P2;Temp;Humidity;BMP_temperature;BMP_pressure;BME280_temperature;BME280_humidity;BME280_pressure;Samples;Min_cycle;Max_cycle;Signal;HPM_P1;HPM_P2
2021/08/15 00:02:12;;;;;;;7.17;2.60;;;;;;;18.44;86.53;101141.03;5033487;28;20442;-68
2021/08/15 00:04:39;;;;;;;2.80;2.10;;;;;;;18.34;86.93;101140.34;5033059;28;20467;-68
2021/08/15 00:07:07;;;;;;;5.33;3.07;;;;;;;18.27;87.34;101136.56;5033176;28;20459;-68
2021/08/15 00:09:33;;;;;;;6.50;3.00;;;;;;;18.24;87.77;101137.22;5033126;28;20883;-67
2021/08/15 00:11:59;;;;;;;7.43;3.93;;;;;;;18.18;87.87;101133.91;5032992;28;20491;-67
2021/08/15 00:14:26;;;;;;;5.77;2.63;;;;;;;18.12;87.99;101136.06;5032674;28;20478;-68
2021/08/15 00:16:52;;;;;;;6.47;3.27;;;;;;;18.02;88.56;101138.44;5032722;28;20450;-68
2021/08/15 00:19:19;;;;;;;4.80;3.80;;;;;;;17.99;88.62;101144.59;5033007;28;20443;-68
2021/08/15 00:21:45;;;;;;;4.20;3.20;;;;;;;18.02;88.43;101139.25;5032966;28;20439;-68
2021/08/15 00:24:13;;;;;;;5.03;3.20;;;;;;;17.95;88.53;101140.91;5036870;28;20473;-67
2021/08/15 00:26:40;;;;;;;9.30;3.83;;;;;;;17.86;88.75;101139.06;5036632;28;20939;-68
2021/08/15 00:29:06;;;;;;;12.50;3.87;;;;;;;17.81;88.87;101136.53;5036602;28;20974;-68
2021/08/15 00:31:33;;;;;;;9.50;4.10;;;;;;;17.75;88.92;101137.06;5036693;28;20490;-68
2021/08/15 00:34:00;;;;;;;6.57;4.10;;;;;;;17.59;90.04;101139.59;5036700;28;20467;-66
2021/08/15 00:36:27;;;;;;;6.50;2.87;;;;;;;17.56;90.41;101135.56;5036744;28;20438;-68
2021/08/15 00:38:53;;;;;;;4.77;3.50;;;;;;;17.57;89.64;101131.69;5036429;28;20446;-68
2021/08/15 00:41:21;;;;;;;5.60;4.10;;;;;;;17.53;90.09;101128.03;5036693;28;20439;-67
2021/08/15 00:43:48;;;;;;;9.93;4.23;;;;;;;17.41;91.19;101130.72;5036528;28;20485;-67
2021/08/15 00:46:14;;;;;;;5.50;3.37;;;;;;;17.36;91.41;101128.97;5036526;28;20443;-69
2021/08/15 00:48:42;;;;;;;7.83;3.43;;;;;;;17.39;90.41;101131.03;5036172;28;20936;-68
2021/08/15 00:51:09;;;;;;;8.40;3.60;;;;;;;17.30;91.43;101124.81;5036393;28;20483;-66
2021/08/15 00:53:36;;;;;;;7.63;3.47;;;;;;;17.22;91.82;101127.59;5036359;28;20465;-68
2021/08/15 00:56:04;;;;;;;6.50;3.40;;;;;;;17.14;92.31;101126.56;5036527;28;20442;-68
2021/08/15 00:58:34;;;;;;;14.03;3.70;;;;;;;17.25;91.75;101119.53;5036041;28;20929;-68
2021/08/15 01:01:01;;;;;;;6.67;4.10;;;;;;;17.25;91.36;101121.47;5035929;28;20944;-68
2021/08/15 01:03:28;;;;;;;4.50;3.13;;;;;;;17.25;91.74;101124.22;5036052;28;20471;-68
2021/08/15 01:05:55;;;;;;;4.47;3.33;;;;;;;17.19;92.06;101115.41;5036174;28;20452;-68
2021/08/15 01:08:21;;;;;;;8.60;3.63;;;;;;;17.17;91.37;101125.88;5036352;28;20449;-67
2021/08/15 01:10:48;;;;;;;4.80;2.80;;;;;;;17.10;92.02;101120.94;5036108;28;20454;-67
2021/08/15 01:13:15;;;;;;;6.00;3.10;;;;;;;16.95;92.46;101120.69;5035986;28;21070;-67
2021/08/15 01:15:43;;;;;;;4.43;2.33;;;;;;;16.98;91.98;101120.03;5036034;28;20550;-68
2021/08/15 01:18:20;;;;;;;5.30;3.37;;;;;;;16.86;92.50;101118.81;5035679;28;20469;-68
2021/08/15 01:20:47;;;;;;;5.60;2.80;;;;;;;16.80;93.21;101122.88;5035922;28;20454;-66
2021/08/15 01:23:13;;;;;;;7.30;3.30;;;;;;;16.83;93.03;101124.16;5035826;28;20467;-67
2021/08/15 01:25:40;;;;;;;5.03;2.70;;;;;;;16.76;92.80;101124.66;5035587;28;20967;-68
2021/08/15 01:28:06;;;;;;;7.50;3.60;;;;;;;16.69;93.61;101118.88;5035522;28;20443;-67
2021/08/15 01:30:34;;;;;;;7.60;3.83;;;;;;;16.75;92.88;101125.00;5035705;28;20443;-68
2021/08/15 01:33:01;;;;;;;8.60;4.40;;;;;;;16.75;93.46;101131.28;5035593;28;20487;-67
2021/08/15 01:35:28;;;;;;;8.93;5.00;;;;;;;16.68;93.23;101127.41;5034373;28;20843;-68
2021/08/15 01:37:55;;;;;;;7.03;3.80;;;;;;;16.62;94.13;101124.84;5035645;28;20454;-68
2021/08/15 01:40:21;;;;;;;6.63;3.60;;;;;;;16.60;93.97;101118.09;5035548;28;20448;-68
2021/08/15 01:42:48;;;;;;;8.10;4.10;;;;;;;16.48;93.94;101121.53;5035297;28;20506;-66
2021/08/15 01:45:14;;;;;;;5.00;3.30;;;;;;;16.55;93.83;101115.53;5035167;28;20994;-68
2021/08/15 01:47:42;;;;;;;6.43;4.07;;;;;;;16.46;94.00;101122.97;5035383;28;20447;-68
2021/08/15 01:50:09;;;;;;;6.07;3.37;;;;;;;16.50;93.79;101111.06;5035386;28;20458;-68
2021/08/15 01:52:36;;;;;;;11.50;3.70;;;;;;;16.52;92.94;101121.69;5035024;28;20435;-69
2021/08/15 01:55:04;;;;;;;6.07;3.80;;;;;;;16.50;93.15;101119.25;5035180;28;20459;-67
2021/08/15 01:57:30;;;;;;;4.57;3.00;;;;;;;16.37;93.78;101112.88;5035299;28;20854;-67
2021/08/15 01:59:56;;;;;;;10.70;4.90;;;;;;;16.36;93.94;101116.75;5035238;28;20443;-69
2021/08/15 02:02:23;;;;;;;13.23;5.50;;;;;;;16.38;94.49;101114.50;5035107;28;20490;-68
2021/08/15 02:04:51;;;;;;;22.37;7.27;;;;;;;16.27;95.15;101115.19;5034716;28;21014;-68
2021/08/15 02:07:17;;;;;;;16.07;6.90;;;;;;;16.23;95.18;101114.22;5035073;28;20447;-68
2021/08/15 02:09:43;;;;;;;13.50;5.40;;;;;;;16.18;94.84;101120.66;5034978;28;20446;-68
2021/08/15 02:12:10;;;;;;;6.77;4.07;;;;;;;16.18;95.35;101107.00;5034900;28;20439;-68
2021/08/15 02:14:36;;;;;;;12.23;5.60;;;;;;;16.28;94.14;101109.38;5034489;28;20485;-68
2021/08/15 02:17:03;;;;;;;6.37;2.80;;;;;;;16.27;93.49;101105.03;5034876;28;20443;-68
2021/08/15 02:19:30;;;;;;;5.87;3.87;;;;;;;16.24;93.52;101104.88;5034525;28;20459;-68
2021/08/15 02:21:57;;;;;;;6.03;3.30;;;;;;;16.22;93.70;101099.75;5034708;28;20557;-68
2021/08/15 02:24:24;;;;;;;7.83;4.07;;;;;;;16.13;94.52;101105.25;5034352;28;20983;-68
2021/08/15 02:26:50;;;;;;;7.03;3.10;;;;;;;16.06;94.44;101104.13;5034737;28;20439;-67
2021/08/15 02:29:17;;;;;;;15.17;4.47;;;;;;;16.03;94.64;101104.78;5034674;28;20446;-68
2021/08/15 02:31:43;;;;;;;8.33;3.80;;;;;;;16.04;95.04;101095.47;5034574;28;20470;-68
2021/08/15 02:34:10;;;;;;;10.73;4.30;;;;;;;16.04;95.27;101109.94;5034411;28;20486;-67
2021/08/15 02:36:36;;;;;;;5.50;3.50;;;;;;;16.11;94.67;101106.69;5034155;28;20829;-69
2021/08/15 02:39:04;;;;;;;4.80;3.07;;;;;;;15.97;95.04;101103.34;5034513;28;20865;-67
2021/08/15 02:41:31;;;;;;;5.53;3.10;;;;;;;15.97;95.49;101092.41;5034007;28;20479;-68
2021/08/15 02:43:57;;;;;;;5.47;3.70;;;;;;;16.00;94.80;101086.31;5034279;28;20481;-67
2021/08/15 02:46:24;;;;;;;4.63;3.37;;;;;;;16.03;94.52;101088.41;5034080;28;20431;-68
2021/08/15 02:48:50;;;;;;;3.23;2.43;;;;;;;15.96;94.65;101088.88;5034201;28;20448;-68
2021/08/15 02:51:16;;;;;;;4.03;2.80;;;;;;;15.90;94.58;101084.72;5034211;28;20470;-67
2021/08/15 02:53:43;;;;;;;4.97;2.77;;;;;;;15.88;94.75;101089.69;5033803;28;21019;-67
2021/08/15 02:56:11;;;;;;;5.00;2.47;;;;;;;15.86;94.65;101081.84;5034157;28;20515;-68
2021/08/15 02:58:37;;;;;;;2.80;2.30;;;;;;;15.84;94.50;101084.06;5034055;28;20450;-69
2021/08/15 03:01:04;;;;;;;2.80;2.53;;;;;;;15.79;94.76;101081.53;5033983;28;20546;-68
2021/08/15 03:03:30;;;;;;;7.20;3.13;;;;;;;15.63;95.54;101083.94;5033827;28;20486;-67
2021/08/15 03:05:56;;;;;;;6.27;2.83;;;;;;;15.73;95.28;101084.75;5033899;28;20531;-68
2021/08/15 03:08:23;;;;;;;4.13;2.80;;;;;;;15.70;94.93;101079.94;5033932;28;20443;-68
2021/08/15 03:10:49;;;;;;;6.40;3.87;;;;;;;15.73;94.47;101079.28;5033902;28;20439;-68
2021/08/15 03:13:17;;;;;;;9.90;3.03;;;;;;;15.61;94.71;101079.91;5033570;28;20471;-67
2021/08/15 03:15:43;;;;;;;4.80;2.87;;;;;;;15.46;95.49;101077.69;5033792;28;20446;-68
2021/08/15 03:18:12;;;;;;;4.57;2.90;;;;;;;15.41;95.34;101081.38;5033806;28;20443;-67
2021/08/15 03:20:39;;;;;;;3.77;2.57;;;;;;;15.48;94.99;101075.41;5033730;28;20454;-70
2021/08/15 03:23:05;;;;;;;3.47;2.50;;;;;;;15.46;95.38;101061.31;5033140;28;20487;-70
2021/08/15 03:25:32;;;;;;;3.17;2.33;;;;;;;15.43;95.41;101064.66;5033934;28;20443;-69
2021/08/15 03:27:58;;;;;;;4.70;2.27;;;;;;;15.51;94.74;101067.38;5033515;28;20809;-66
2021/08/15 03:30:26;;;;;;;4.07;2.50;;;;;;;15.43;95.37;101070.13;5033530;28;20447;-68
2021/08/15 03:32:52;;;;;;;7.67;3.07;;;;;;;15.48;94.82;101072.69;5033448;28;20440;-67
2021/08/15 03:35:19;;;;;;;3.30;2.30;;;;;;;15.34;95.87;101084.56;5033520;28;20439;-68
2021/08/15 03:37:45;;;;;;;7.40;3.63;;;;;;;15.30;94.55;101086.34;5033403;28;20439;-68
2021/08/15 03:40:13;;;;;;;6.17;3.10;;;;;;;15.20;92.43;101070.28;5033103;28;20974;-68
2021/08/15 03:42:39;;;;;;;5.40;3.07;;;;;;;15.09;91.45;101068.97;5032974;28;20483;-68
2021/08/15 03:45:07;;;;;;;4.10;2.87;;;;;;;15.11;90.79;101064.00;5033328;28;20463;-67
2021/08/15 03:47:35;;;;;;;5.10;2.60;;;;;;;15.02;90.70;101068.66;5033303;28;20474;-68
2021/08/15 03:50:02;;;;;;;4.03;3.53;;;;;;;14.85;95.34;101075.69;5033287;28;20454;-68
2021/08/15 03:52:29;;;;;;;4.03;2.30;;;;;;;14.81;95.48;101071.97;5033294;28;20435;-68
2021/08/15 03:54:56;;;;;;;4.47;3.13;;;;;;;14.89;95.29;101075.84;5033161;28;20466;-68
2021/08/15 03:57:22;;;;;;;3.43;3.07;;;;;;;14.94;95.79;101072.19;5032713;28;20443;-67
2021/08/15 03:59:49;;;;;;;8.13;3.53;;;;;;;14.87;95.45;101072.63;5033207;28;20459;-68
2021/08/15 04:02:15;;;;;;;10.27;3.07;;;;;;;14.97;93.13;101079.72;5033105;28;20486;-67
2021/08/15 04:04:43;;;;;;;2.80;2.30;;;;;;;14.88;93.51;101085.97;5033070;28;20466;-68
2021/08/15 04:07:09;;;;;;;4.70;3.50;;;;;;;14.80;93.28;101081.28;5033275;28;20970;-67
2021/08/15 04:09:36;;;;;;;7.03;3.73;;;;;;;14.88;93.63;101077.78;5032840;28;20940;-68
2021/08/15 04:12:02;;;;;;;8.13;2.63;;;;;;;14.81;95.67;101077.44;5033015;28;20454;-68
2021/08/15 04:14:29;;;;;;;3.60;2.80;;;;;;;14.85;96.11;101075.69;5034354;28;20516;-67
2021/08/15 04:16:55;;;;;;;4.10;2.20;;;;;;;14.96;95.71;101083.56;5032812;28;20818;-68
2021/08/15 04:19:21;;;;;;;6.87;3.70;;;;;;;14.89;96.17;101071.19;5033176;28;20485;-69
2021/08/15 04:21:49;;;;;;;5.07;3.10;;;;;;;14.96;96.18;101070.72;5032987;28;20447;-69
2021/08/15 04:24:16;;;;;;;4.10;3.00;;;;;;;15.07;95.30;101068.50;5033049;28;20471;-68
2021/08/15 04:26:44;;;;;;;3.90;3.13;;;;;;;15.11;94.98;101069.47;5032760;28;20446;-69
2021/08/15 04:29:13;;;;;;;4.30;3.03;;;;;;;15.18;94.90;101067.06;5033002;28;20450;-68
2021/08/15 04:31:39;;;;;;;5.37;2.80;;;;;;;15.06;95.77;101064.19;5032590;28;20451;-69
2021/08/15 04:34:06;;;;;;;3.80;2.90;;;;;;;15.07;96.13;101060.31;5032893;28;20467;-68
2021/08/15 04:36:32;;;;;;;3.30;2.60;;;;;;;14.99;96.58;101059.19;5032846;28;20447;-69
2021/08/15 04:39:00;;;;;;;6.43;3.03;;;;;;;15.17;96.37;101060.00;5032868;28;20469;-69
2021/08/15 04:41:26;;;;;;;6.30;2.90;;;;;;;15.20;96.39;101064.81;5032520;28;20882;-69
2021/08/15 04:43:53;;;;;;;4.83;3.47;;;;;;;15.25;96.79;101061.94;5032607;28;20487;-68
2021/08/15 04:46:19;;;;;;;9.37;4.60;;;;;;;15.28;97.26;101060.50;5032834;28;20456;-69
2021/08/15 04:48:46;;;;;;;3.07;2.77;;;;;;;15.35;97.42;101058.06;5032759;28;20455;-67
2021/08/15 04:51:12;;;;;;;4.77;3.57;;;;;;;15.37;96.47;101056.63;5032763;28;20836;-67
2021/08/15 04:53:39;;;;;;;4.37;2.73;;;;;;;15.30;94.18;101063.69;5032618;28;20455;-69
2021/08/15 04:56:06;;;;;;;5.50;3.00;;;;;;;15.41;92.46;101061.47;5032388;28;20819;-69
2021/08/15 04:58:35;;;;;;;5.13;3.27;;;;;;;15.47;92.02;101057.44;5032387;28;20971;-69
2021/08/15 05:01:01;;;;;;;5.13;3.60;;;;;;;15.50;93.62;101065.78;5032961;28;20509;-69
2021/08/15 05:03:28;;;;;;;5.83;2.93;;;;;;;15.58;94.50;101064.97;5032464;28;20491;-68
2021/08/15 05:05:54;;;;;;;6.37;2.73;;;;;;;15.72;95.53;101064.84;5032552;28;20451;-68
2021/08/15 05:08:21;;;;;;;4.37;3.40;;;;;;;15.80;97.10;101068.66;5032312;28;20929;-69
2021/08/15 05:10:47;;;;;;;10.17;3.90;;;;;;;15.91;97.63;101063.66;5035497;28;20451;-69
2021/08/15 05:13:15;;;;;;;3.17;2.87;;;;;;;16.01;98.15;101055.13;5035882;28;20482;-68
2021/08/15 05:15:41;;;;;;;6.43;4.00;;;;;;;16.07;99.33;101053.81;5035984;28;20438;-69
2021/08/15 05:18:08;;;;;;;5.17;3.80;;;;;;;16.16;100.00;101057.34;5036008;28;20822;-69
2021/08/15 05:20:34;;;;;;;6.57;3.00;;;;;;;16.30;100.00;101051.66;5035975;28;20439;-69
2021/08/15 05:23:01;;;;;;;4.17;2.77;;;;;;;16.45;100.00;101055.75;5035731;28;20486;-68
2021/08/15 05:25:27;;;;;;;4.53;3.10;;;;;;;16.54;100.00;101062.78;5035556;28;20443;-69
2021/08/15 05:27:54;;;;;;;3.87;2.70;;;;;;;16.69;100.00;101052.41;5035805;28;20450;-69
2021/08/15 05:30:22;;;;;;;4.40;2.90;;;;;;;16.84;100.00;101055.41;5035731;28;20447;-68
2021/08/15 05:32:48;;;;;;;5.83;2.70;;;;;;;16.95;99.87;101057.75;5035618;28;20443;-67
2021/08/15 05:35:15;;;;;;;5.40;4.60;;;;;;;17.04;99.97;101067.50;5035643;28;20443;-68
2021/08/15 05:37:42;;;;;;;7.00;3.90;;;;;;;17.17;99.73;101073.06;5035669;28;20447;-69
2021/08/15 05:40:09;;;;;;;8.60;3.57;;;;;;;17.30;99.42;101077.47;5035616;28;20447;-68
2021/08/15 05:42:36;;;;;;;3.37;2.83;;;;;;;17.43;98.92;101070.13;5035510;28;20490;-69
2021/08/15 05:45:02;;;;;;;3.80;2.80;;;;;;;17.61;97.55;101075.09;5035515;28;20470;-69
2021/08/15 05:47:30;;;;;;;5.87;2.90;;;;;;;17.76;97.24;101079.19;5035515;28;20454;-68
2021/08/15 05:49:56;;;;;;;5.93;2.70;;;;;;;17.89;96.97;101072.63;5035082;28;20486;-69
2021/08/15 05:52:24;;;;;;;9.13;2.80;;;;;;;18.01;95.83;101068.28;5035313;28;20439;-69
2021/08/15 05:54:51;;;;;;;3.50;2.50;;;;;;;18.13;94.19;101071.06;5035247;28;20574;-70
2021/08/15 05:57:17;;;;;;;4.07;2.27;;;;;;;18.23;92.89;101064.31;5035548;28;20446;-68
2021/08/15 05:59:44;;;;;;;7.40;2.53;;;;;;;18.33;91.73;101069.38;5035211;28;20439;-69
2021/08/15 06:02:11;;;;;;;3.73;2.57;;;;;;;18.45;90.19;101074.06;5034785;28;20969;-69
2021/08/15 06:04:38;;;;;;;4.80;2.27;;;;;;;18.57;89.78;101074.06;5035047;28;20463;-69
2021/08/15 06:07:05;;;;;;;6.60;2.57;;;;;;;18.65;89.18;101073.16;5034749;28;20467;-69
2021/08/15 06:09:31;;;;;;;4.03;2.27;;;;;;;18.75;88.49;101066.44;5035044;28;20450;-68
2021/08/15 06:12:03;;;;;;;4.27;2.33;;;;;;;18.82;87.58;101070.22;5034684;28;20443;-69
2021/08/15 06:14:29;;;;;;;5.87;2.63;;;;;;;18.87;86.26;101069.16;5034605;28;20475;-68
2021/08/15 06:16:55;;;;;;;8.40;2.80;;;;;;;18.94;86.22;101076.81;5034602;28;20939;-69
2021/08/15 06:19:22;;;;;;;5.50;2.50;;;;;;;19.02;86.74;101073.13;5034890;28;20451;-67
2021/08/15 06:21:50;;;;;;;3.27;2.73;;;;;;;19.15;85.80;101080.22;5034400;28;20447;-69
2021/08/15 06:24:16;;;;;;;3.23;2.37;;;;;;;19.23;85.69;101072.97;5034661;28;20487;-68
2021/08/15 06:26:43;;;;;;;4.57;2.13;;;;;;;19.32;85.25;101074.44;5034389;28;20436;-69
2021/08/15 06:29:09;;;;;;;3.47;1.97;;;;;;;19.41;85.43;101075.09;5034694;28;20439;-69
2021/08/15 06:31:36;;;;;;;3.10;1.87;;;;;;;19.55;85.27;101057.41;5034634;28;20450;-70
2021/08/15 06:34:02;;;;;;;3.50;2.43;;;;;;;19.70;84.90;101064.94;5034254;28;20972;-69
2021/08/15 06:36:29;;;;;;;3.13;2.23;;;;;;;19.80;84.20;101072.69;5034550;28;20455;-68
2021/08/15 06:38:57;;;;;;;8.10;2.70;;;;;;;19.88;84.24;101068.97;5034505;28;20439;-69
2021/08/15 06:41:23;;;;;;;4.07;2.57;;;;;;;19.96;83.85;101071.88;5034398;28;20446;-68
2021/08/15 06:43:50;;;;;;;6.90;2.17;;;;;;;20.04;83.57;101062.69;5034183;28;20483;-68
2021/08/15 06:46:16;;;;;;;5.87;2.80;;;;;;;20.10;84.33;101064.03;5034336;28;20447;-68
2021/08/15 06:48:44;;;;;;;6.00;2.33;;;;;;;20.19;82.91;101064.66;5034272;28;20450;-70
2021/08/15 06:51:11;;;;;;;4.93;2.20;;;;;;;20.26;82.76;101070.31;5034368;28;20469;-68
2021/08/15 06:53:38;;;;;;;4.10;2.53;;;;;;;20.32;82.11;101063.41;5034022;28;20458;-70
2021/08/15 06:56:08;;;;;;;5.77;3.17;;;;;;;20.38;82.74;101063.94;5034159;28;20539;-67
2021/08/15 06:58:35;;;;;;;3.80;2.73;;;;;;;20.47;81.45;101085.78;5034010;28;20447;-71
2021/08/15 07:01:02;;;;;;;4.67;2.27;;;;;;;20.57;81.57;101085.25;5034096;28;20505;-73
2021/08/15 07:03:31;;;;;;;7.50;2.43;;;;;;;20.60;82.18;101087.31;5033917;28;20493;-71
2021/08/15 07:05:58;;;;;;;9.53;2.60;;;;;;;20.71;82.09;101080.09;5033947;28;20439;-70
2021/08/15 07:08:25;;;;;;;5.53;2.63;;;;;;;20.76;82.80;101087.28;5033968;28;20454;-69
2021/08/15 07:10:51;;;;;;;5.20;2.70;;;;;;;20.68;82.20;101088.28;5033828;28;20438;-69
2021/08/15 07:13:22;;;;;;;4.57;2.57;;;;;;;20.73;82.20;101083.28;5033455;28;20486;-69
2021/08/15 07:15:49;;;;;;;4.17;2.07;;;;;;;20.69;80.99;101082.41;5033764;28;20436;-69
2021/08/15 07:18:16;;;;;;;5.10;2.23;;;;;;;20.70;83.10;101075.75;5033819;28;20442;-69
2021/08/15 07:20:43;;;;;;;5.03;2.30;;;;;;;20.82;83.97;101078.38;5033761;28;20463;-71
2021/08/15 07:23:09;;;;;;;4.63;3.20;;;;;;;20.89;81.03;101070.31;5033557;28;20486;-69
2021/08/15 07:25:36;;;;;;;3.80;2.60;;;;;;;20.97;82.01;101078.72;5033534;28;20629;-71
2021/08/15 07:28:03;;;;;;;5.40;2.30;;;;;;;20.80;79.01;101079.88;5033293;28;20451;-70
2021/08/15 07:30:33;;;;;;;3.30;2.10;;;;;;;20.86;80.04;101082.03;5033598;28;20439;-68
2021/08/15 07:33:01;;;;;;;3.77;2.13;;;;;;;20.89;80.26;101078.56;5032708;28;20439;-68
2021/08/15 07:35:28;;;;;;;7.30;3.17;;;;;;;20.94;80.59;101071.97;5033519;28;20497;-69
2021/08/15 07:37:55;;;;;;;3.00;2.23;;;;;;;21.02;81.06;101070.16;5033525;28;20443;-69
2021/08/15 07:40:21;;;;;;;7.13;2.93;;;;;;;21.07;79.20;101075.38;5033150;28;20940;-68
2021/08/15 07:42:50;;;;;;;4.33;1.57;;;;;;;21.11;78.48;101076.25;5033085;28;20939;-68
2021/08/15 07:45:17;;;;;;;5.80;2.00;;;;;;;21.17;78.00;101081.13;5033359;28;20477;-69
2021/08/15 07:47:45;;;;;;;5.07;2.00;;;;;;;21.23;76.63;101067.06;5033141;28;20501;-68
2021/08/15 07:50:12;;;;;;;7.73;2.00;;;;;;;21.35;77.24;101066.97;5033569;28;20440;-68
2021/08/15 07:52:38;;;;;;;16.13;2.50;;;;;;;21.42;74.93;101062.38;5033320;28;20439;-68
2021/08/15 07:55:06;;;;;;;2.53;2.00;;;;;;;21.51;75.37;101072.38;5033206;28;20463;-69
2021/08/15 07:57:33;;;;;;;4.77;1.77;;;;;;;21.54;74.67;101069.72;5033292;28;20442;-69
2021/08/15 07:59:59;;;;;;;6.93;2.50;;;;;;;21.46;76.14;101062.44;5033277;28;20450;-68
2021/08/15 08:02:26;;;;;;;10.90;2.63;;;;;;;21.39;74.21;101071.38;5033243;28;20435;-69
2021/08/15 08:04:55;;;;;;;4.50;2.20;;;;;;;21.30;75.63;101065.28;5032989;28;20514;-69
2021/08/15 08:07:22;;;;;;;6.47;2.30;;;;;;;21.38;76.88;101067.03;5032938;28;20447;-69
2021/08/15 08:09:49;;;;;;;4.47;1.70;;;;;;;21.36;75.33;101061.09;5033087;28;20451;-70
2021/08/15 08:12:16;;;;;;;2.43;1.50;;;;;;;21.55;75.77;101062.22;5033105;28;20447;-69
2021/08/15 08:14:43;;;;;;;5.90;2.00;;;;;;;21.73;72.78;101057.84;5032740;28;20467;-70
2021/08/15 08:17:12;;;;;;;5.60;2.43;;;;;;;21.83;76.42;101068.31;5033081;28;20439;-69
2021/08/15 08:19:39;;;;;;;4.10;2.40;;;;;;;21.89;75.60;101061.31;5032611;28;20933;-70
2021/08/15 08:22:07;;;;;;;7.10;2.23;;;;;;;21.86;74.89;101061.25;5033163;28;20442;-68
2021/08/15 08:24:34;;;;;;;3.53;2.13;;;;;;;21.75;75.03;101044.50;5032633;28;21004;-69
2021/08/15 08:27:00;;;;;;;3.53;2.00;;;;;;;21.79;73.57;101048.13;5033017;28;20439;-68
2021/08/15 08:29:27;;;;;;;3.40;1.77;;;;;;;21.88;70.00;101056.19;5032967;28;20450;-69
2021/08/15 08:31:53;;;;;;;2.83;2.20;;;;;;;21.71;73.39;101038.13;5032708;28;20436;-69
2021/08/15 08:34:20;;;;;;;4.53;2.00;;;;;;;21.68;72.59;101038.84;5032792;28;20463;-69
2021/08/15 08:36:46;;;;;;;6.30;2.07;;;;;;;21.81;75.35;101034.75;5032821;28;20455;-70
2021/08/15 08:39:14;;;;;;;6.97;2.27;;;;;;;21.92;70.03;101033.00;5032852;28;20450;-69
2021/08/15 08:41:41;;;;;;;3.20;2.00;;;;;;;22.06;68.35;101035.22;5032880;28;20458;-70
2021/08/15 08:44:08;;;;;;;4.17;1.90;;;;;;;22.13;68.14;101035.38;5034813;28;20517;-69
2021/08/15 08:46:35;;;;;;;3.70;1.67;;;;;;;22.24;68.54;101029.22;5036656;28;20458;-71
2021/08/15 08:49:02;;;;;;;3.93;1.80;;;;;;;22.29;69.58;101024.19;5036219;28;20442;-69
2021/08/15 08:51:30;;;;;;;5.80;2.20;;;;;;;22.28;69.70;101028.13;5036518;28;20522;-68
2021/08/15 08:53:57;;;;;;;3.97;1.50;;;;;;;22.36;70.26;101018.00;5036554;28;20490;-68
2021/08/15 08:56:25;;;;;;;3.77;1.83;;;;;;;22.49;67.63;101016.63;5036521;28;20450;-68
2021/08/15 08:58:52;;;;;;;3.20;1.87;;;;;;;22.60;68.89;101033.34;5036397;28;20514;-70
2021/08/15 09:01:18;;;;;;;6.50;2.13;;;;;;;22.63;65.09;101027.06;5036422;28;20489;-68
2021/08/15 09:03:46;;;;;;;4.90;2.03;;;;;;;22.58;66.01;101013.59;5036182;28;20498;-68
2021/08/15 09:06:20;;;;;;;4.00;2.23;;;;;;;22.71;64.81;101017.72;5036154;28;20442;-69
2021/08/15 09:08:47;;;;;;;7.23;2.53;;;;;;;22.73;65.36;101018.13;5036253;28;20446;-70
2021/08/15 09:11:16;;;;;;;4.30;2.03;;;;;;;22.82;64.10;101017.88;5036211;28;20447;-68
2021/08/15 09:13:45;;;;;;;3.53;1.80;;;;;;;22.88;62.61;101014.38;5035573;28;20988;-70
2021/08/15 09:16:12;;;;;;;4.40;2.40;;;;;;;22.79;64.75;101013.88;5036099;28;20439;-67
2021/08/15 09:18:38;;;;;;;6.63;1.60;;;;;;;22.91;62.92;101015.66;5035870;28;20462;-70
2021/08/15 09:21:05;;;;;;;3.60;2.10;;;;;;;23.01;62.41;101011.44;5035949;28;20435;-70
2021/08/15 09:23:34;;;;;;;6.00;2.13;;;;;;;23.10;61.99;101023.00;5035772;28;20505;-69
2021/08/15 09:26:24;;;;;;;2.57;1.70;;;;;;;23.13;61.41;101025.81;5035886;28;20929;-69
2021/08/15 09:28:52;;;;;;;4.00;1.87;;;;;;;23.15;62.46;101022.66;5015606;28;20459;-69
2021/08/15 09:31:24;;;;;;;4.10;1.93;;;;;;;23.23;61.54;101009.72;5035809;28;20435;-70
2021/08/15 09:33:52;;;;;;;8.53;3.40;;;;;;;23.33;60.83;101009.88;5035333;28;20963;-69
2021/08/15 09:36:26;;;;;;;4.20;2.23;;;;;;;23.31;58.88;101012.19;5035702;28;20435;-69
2021/08/15 09:38:57;;;;;;;7.70;1.90;;;;;;;23.34;61.25;101014.22;5035647;28;20453;-70
2021/08/15 09:41:24;;;;;;;5.57;2.17;;;;;;;23.38;61.85;100995.69;5036082;28;20431;-70
2021/08/15 09:44:19;;;;;;;2.93;2.40;;;;;;;23.47;59.89;100991.84;5035050;28;20483;-70
2021/08/15 09:47:07;;;;;;;4.93;2.17;;;;;;;23.30;59.06;100994.03;5035523;28;20447;-70
2021/08/15 09:49:39;;;;;;;6.73;1.90;;;;;;;23.22;57.86;100986.03;5035499;28;20435;-69
2021/08/15 09:52:07;;;;;;;3.47;1.73;;;;;;;23.30;58.67;100985.72;5035429;28;20423;-69
2021/08/15 09:54:34;;;;;;;3.07;1.73;;;;;;;23.41;58.44;100972.81;5034850;28;20455;-69
2021/08/15 09:57:04;;;;;;;1.83;1.40;;;;;;;23.50;54.94;100966.97;5034859;28;20462;-69
2021/08/15 09:59:35;;;;;;;6.00;2.07;;;;;;;23.49;55.80;100959.06;5034742;28;20461;-70
2021/08/15 10:02:04;;;;;;;4.23;1.73;;;;;;;23.46;56.39;100951.50;5035195;28;20428;-70
2021/08/15 10:04:30;;;;;;;2.90;1.53;;;;;;;23.55;54.38;100949.22;5034627;28;21041;-71
2021/08/15 10:06:57;;;;;;;3.00;1.60;;;;;;;23.67;52.90;100952.53;5035013;28;20435;-70
2021/08/15 10:09:25;;;;;;;1.53;1.10;;;;;;;23.79;54.01;100956.22;5035027;28;20452;-70
2021/08/15 10:11:52;;;;;;;2.57;1.47;;;;;;;23.89;53.69;100952.72;5034744;28;20447;-70
2021/08/15 10:14:20;;;;;;;5.00;1.73;;;;;;;24.05;52.39;100950.50;5081355;22;20515;-70
2021/08/15 10:16:54;;;;;;;5.60;2.43;;;;;;;24.22;51.03;100954.56;5095002;28;20448;-69
2021/08/15 10:19:32;;;;;;;4.70;1.80;;;;;;;24.35;51.71;100966.94;5095209;28;20416;-69
2021/08/15 10:22:00;;;;;;;5.20;1.93;;;;;;;24.46;52.11;100966.22;5094900;28;20433;-69
2021/08/15 10:24:42;;;;;;;4.10;1.50;;;;;;;24.60;51.37;100975.41;5094422;28;20480;-69
2021/08/15 10:27:09;;;;;;;4.20;1.57;;;;;;;24.70;51.38;100976.63;5094788;28;20477;-69
2021/08/15 10:29:44;;;;;;;7.20;2.23;;;;;;;24.76;51.04;100966.78;5094467;28;20972;-71
2021/08/15 10:32:33;;;;;;;5.60;2.07;;;;;;;24.79;52.54;100963.25;5094381;28;20958;-71
2021/08/15 10:35:18;;;;;;;3.10;2.20;;;;;;;24.82;52.45;100956.13;5089370;28;20475;-71
2021/08/15 10:37:47;;;;;;;3.20;1.40;;;;;;;24.79;52.12;100951.34;5094275;28;20901;-72
2021/08/15 10:40:59;;;;;;;4.40;2.10;;;;;;;24.79;53.88;100940.25;5094525;28;20436;-72
2021/08/15 10:44:02;;;;;;;3.20;1.90;;;;;;;24.97;54.20;100938.38;5094296;28;20524;-71
2021/08/15 10:46:28;;;;;;;7.60;1.73;;;;;;;25.01;51.78;100944.69;5094331;28;20420;-71
2021/08/15 10:48:58;;;;;;;3.90;1.63;;;;;;;24.98;52.83;100936.38;5094168;28;20486;-71
2021/08/15 10:51:57;;;;;;;3.53;2.03;;;;;;;24.84;50.98;100939.91;5093976;28;20443;-72
2021/08/15 10:55:06;;;;;;;7.50;2.17;;;;;;;25.01;51.92;100939.16;5031628;28;20462;-71
2021/08/15 10:57:45;;;;;;;2.00;1.80;;;;;;;25.31;53.70;100936.09;5031764;28;20792;-72
2021/08/15 11:00:44;;;;;;;3.00;2.40;;;;;;;25.70;53.40;100931.78;5082349;28;20447;-71
2021/08/15 11:03:36;;;;;;;4.73;1.67;;;;;;;25.97;51.37;100932.22;5094127;28;20444;-72
2021/08/15 11:06:05;;;;;;;4.40;3.10;;;;;;;26.11;49.62;100937.75;5093780;28;20875;-72
2021/08/15 11:08:55;;;;;;;6.50;1.80;;;;;;;26.17;47.62;100925.84;5093802;28;20973;-73
2021/08/15 11:11:33;;;;;;;2.60;1.80;;;;;;;26.03;47.89;100930.59;5093834;28;20451;-70
2021/08/15 11:14:26;;;;;;;4.60;2.00;;;;;;;25.86;49.70;100921.91;5093611;28;20848;-71
2021/08/15 11:16:54;;;;;;;2.77;1.80;;;;;;;25.82;47.82;100915.56;5093763;28;20436;-73
2021/08/15 11:19:28;;;;;;;4.03;1.80;;;;;;;26.07;49.38;100920.28;5093823;28;20449;-71
2021/08/15 11:22:09;;;;;;;3.83;2.10;;;;;;;26.55;48.21;100914.25;5093640;28;20510;-70
2021/08/15 11:24:38;;;;;;;3.50;1.73;;;;;;;26.97;46.18;100912.50;5093559;28;20484;-72
2021/08/15 11:27:06;;;;;;;4.97;1.97;;;;;;;26.51;46.22;100913.47;5092905;28;20966;-69
2021/08/15 11:29:33;;;;;;;3.57;2.10;;;;;;;26.26;47.62;100913.53;5093334;28;20944;-73
2021/08/15 11:32:00;;;;;;;3.73;1.90;;;;;;;27.02;47.42;100906.50;5093517;28;20448;-69